sensor_id;sensor_type;location;lat;lon;timestamp;P1;durP1;ratioP1;P2;durP2;ratioP2
46713;SDS011;32445;51.376;10.874;2023-04-30T00:01:09;14.30;;;13.35;;
46713;SDS011;32445;51.376;10.874;2023-04-30T00:04:09;14.95;;;13.65;;
46713;SDS011;32445;51.376;10.874;2023-04-30T00:07:09;13.57;;;12.68;;
46713;SDS011;32445;51.376;10.874;2023-04-30T00:10:10;14.27;;;12.67;;
46713;SDS011;32445;51.376;10.874;2023-04-30T00:13:11;13.38;;;12.43;;
46713;SDS011;32445;51.376;10.874;2023-04-30T00:16:13;12.30;;;11.23;;
46713;SDS011;32445;51.376;10.874;2023-04-30T00:19:13;12.05;;;11.07;;
46713;SDS011;32445;51.376;10.874;2023-04-30T00:22:13;11.88;;;10.80;;
46713;SDS011;32445;51.376;10.874;2023-04-30T00:25:13;11.40;;;10.43;;
46713;SDS011;32445;51.376;10.874;2023-04-30T00:28:15;12.15;;;10.80;;
46713;SDS011;32445;51.376;10.874;2023-04-30T00:31:15;11.80;;;11.00;;
46713;SDS011;32445;51.376;10.874;2023-04-30T00:34:16;12.27;;;11.40;;
46713;SDS011;32445;51.376;10.874;2023-04-30T00:37:16;10.52;;;9.73;;
46713;SDS011;32445;51.376;10.874;2023-04-30T00:40:16;10.98;;;10.20;;
46713;SDS011;32445;51.376;10.874;2023-04-30T00:43:17;11.50;;;10.63;;
46713;SDS011;32445;51.376;10.874;2023-04-30T00:46:17;11.98;;;11.07;;
46713;SDS011;32445;51.376;10.874;2023-04-30T00:49:18;10.68;;;9.88;;
46713;SDS011;32445;51.376;10.874;2023-04-30T00:52:18;11.88;;;11.00;;
46713;SDS011;32445;51.376;10.874;2023-04-30T00:55:18;11.57;;;10.60;;
46713;SDS011;32445;51.376;10.874;2023-04-30T00:58:19;11.77;;;10.77;;
46713;SDS011;32445;51.376;10.874;2023-04-30T01:01:20;12.73;;;11.52;;
46713;SDS011;32445;51.376;10.874;2023-04-30T01:04:20;12.07;;;11.23;;
46713;SDS011;32445;51.376;10.874;2023-04-30T01:07:21;12.32;;;11.18;;
46713;SDS011;32445;51.376;10.874;2023-04-30T01:10:22;14.18;;;13.20;;
46713;SDS011;32445;51.376;10.874;2023-04-30T01:13:33;13.48;;;12.23;;
46713;SDS011;32445;51.376;10.874;2023-04-30T01:16:46;12.23;;;11.23;;
46713;SDS011;32445;51.376;10.874;2023-04-30T01:19:52;13.45;;;12.45;;
46713;SDS011;32445;51.376;10.874;2023-04-30T01:29:47;12.98;;;11.80;;
46713;SDS011;32445;51.376;10.874;2023-04-30T01:32:47;12.45;;;11.45;;
46713;SDS011;32445;51.376;10.874;2023-04-30T01:52:30;12.98;;;11.98;;
46713;SDS011;32445;51.376;10.874;2023-04-30T01:55:49;14.35;;;13.25;;
46713;SDS011;32445;51.376;10.874;2023-04-30T01:58:51;14.05;;;11.02;;
46713;SDS011;32445;51.376;10.874;2023-04-30T02:01:52;14.27;;;13.02;;
46713;SDS011;32445;51.376;10.874;2023-04-30T02:04:55;12.38;;;11.18;;
46713;SDS011;32445;51.376;10.874;2023-04-30T02:07:55;12.55;;;11.55;;
46713;SDS011;32445;51.376;10.874;2023-04-30T02:10:55;11.77;;;10.90;;
46713;SDS011;32445;51.376;10.874;2023-04-30T02:13:56;12.25;;;11.35;;
46713;SDS011;32445;51.376;10.874;2023-04-30T02:16:56;11.38;;;10.55;;
46713;SDS011;32445;51.376;10.874;2023-04-30T02:19:57;12.52;;;10.45;;
46713;SDS011;32445;51.376;10.874;2023-04-30T02:22:57;10.93;;;10.03;;
46713;SDS011;32445;51.376;10.874;2023-04-30T02:25:58;12.68;;;11.60;;
46713;SDS011;32445;51.376;10.874;2023-04-30T02:28:58;13.70;;;12.60;;
46713;SDS011;32445;51.376;10.874;2023-04-30T02:31:59;12.77;;;11.77;;
46713;SDS011;32445;51.376;10.874;2023-04-30T02:34:59;13.93;;;12.82;;
46713;SDS011;32445;51.376;10.874;2023-04-30T02:38:00;13.25;;;12.25;;
46713;SDS011;32445;51.376;10.874;2023-04-30T02:41:00;12.45;;;11.60;;
46713;SDS011;32445;51.376;10.874;2023-04-30T02:44:02;11.73;;;10.80;;
46713;SDS011;32445;51.376;10.874;2023-04-30T02:47:02;10.73;;;10.02;;
46713;SDS011;32445;51.376;10.874;2023-04-30T02:50:03;12.27;;;11.38;;
46713;SDS011;32445;51.376;10.874;2023-04-30T02:53:04;11.97;;;10.77;;
46713;SDS011;32445;51.376;10.874;2023-04-30T02:56:04;10.02;;;9.10;;
46713;SDS011;32445;51.376;10.874;2023-04-30T02:59:05;10.30;;;9.60;;
46713;SDS011;32445;51.376;10.874;2023-04-30T03:02:06;10.45;;;9.45;;
46713;SDS011;32445;51.376;10.874;2023-04-30T03:05:06;11.90;;;9.40;;
46713;SDS011;32445;51.376;10.874;2023-04-30T03:08:07;11.18;;;10.38;;
46713;SDS011;32445;51.376;10.874;2023-04-30T03:11:07;10.43;;;9.73;;
46713;SDS011;32445;51.376;10.874;2023-04-30T03:14:07;11.50;;;10.75;;
46713;SDS011;32445;51.376;10.874;2023-04-30T03:17:08;17.23;;;15.60;;
46713;SDS011;32445;51.376;10.874;2023-04-30T03:20:08;15.30;;;14.20;;
46713;SDS011;32445;51.376;10.874;2023-04-30T03:23:09;14.70;;;13.53;;
46713;SDS011;32445;51.376;10.874;2023-04-30T03:26:10;16.00;;;12.65;;
46713;SDS011;32445;51.376;10.874;2023-04-30T03:29:10;13.07;;;11.98;;
46713;SDS011;32445;51.376;10.874;2023-04-30T03:32:10;11.68;;;10.68;;
46713;SDS011;32445;51.376;10.874;2023-04-30T03:35:11;18.45;;;11.90;;
46713;SDS011;32445;51.376;10.874;2023-04-30T03:38:11;14.15;;;11.20;;
46713;SDS011;32445;51.376;10.874;2023-04-30T03:41:12;11.65;;;10.75;;
46713;SDS011;32445;51.376;10.874;2023-04-30T03:44:12;11.40;;;10.40;;
46713;SDS011;32445;51.376;10.874;2023-04-30T03:47:14;10.85;;;9.60;;
46713;SDS011;32445;51.376;10.874;2023-04-30T03:50:16;10.68;;;9.77;;
46713;SDS011;32445;51.376;10.874;2023-04-30T03:53:17;9.98;;;9.27;;
46713;SDS011;32445;51.376;10.874;2023-04-30T03:56:17;9.70;;;8.95;;
46713;SDS011;32445;51.376;10.874;2023-04-30T03:59:18;11.07;;;9.85;;
46713;SDS011;32445;51.376;10.874;2023-04-30T04:02:18;8.90;;;8.23;;
46713;SDS011;32445;51.376;10.874;2023-04-30T04:05:20;11.25;;;9.00;;
46713;SDS011;32445;51.376;10.874;2023-04-30T04:08:20;9.48;;;8.57;;
46713;SDS011;32445;51.376;10.874;2023-04-30T04:11:21;9.55;;;8.77;;
46713;SDS011;32445;51.376;10.874;2023-04-30T04:14:21;10.02;;;9.07;;
46713;SDS011;32445;51.376;10.874;2023-04-30T04:17:21;10.27;;;9.57;;
46713;SDS011;32445;51.376;10.874;2023-04-30T04:20:22;9.80;;;9.02;;
46713;SDS011;32445;51.376;10.874;2023-04-30T04:23:22;9.63;;;8.93;;
46713;SDS011;32445;51.376;10.874;2023-04-30T04:26:22;9.05;;;8.25;;
46713;SDS011;32445;51.376;10.874;2023-04-30T04:29:24;10.48;;;9.75;;
46713;SDS011;32445;51.376;10.874;2023-04-30T04:32:25;10.02;;;9.32;;
46713;SDS011;32445;51.376;10.874;2023-04-30T04:35:26;9.20;;;8.40;;
46713;SDS011;32445;51.376;10.874;2023-04-30T04:38:26;9.80;;;9.10;;
46713;SDS011;32445;51.376;10.874;2023-04-30T04:41:27;9.43;;;8.73;;
46713;SDS011;32445;51.376;10.874;2023-04-30T04:44:28;9.23;;;8.53;;
46713;SDS011;32445;51.376;10.874;2023-04-30T04:47:28;9.00;;;8.30;;
46713;SDS011;32445;51.376;10.874;2023-04-30T04:50:28;7.63;;;7.13;;
46713;SDS011;32445;51.376;10.874;2023-04-30T04:53:29;9.85;;;8.50;;
46713;SDS011;32445;51.376;10.874;2023-04-30T04:56:29;7.75;;;7.25;;
46713;SDS011;32445;51.376;10.874;2023-04-30T04:59:29;8.82;;;8.02;;
46713;SDS011;32445;51.376;10.874;2023-04-30T05:02:30;9.07;;;8.25;;
46713;SDS011;32445;51.376;10.874;2023-04-30T05:05:31;8.30;;;7.72;;
46713;SDS011;32445;51.376;10.874;2023-04-30T05:08:31;9.57;;;8.77;;
46713;SDS011;32445;51.376;10.874;2023-04-30T05:11:31;9.52;;;8.82;;
46713;SDS011;32445;51.376;10.874;2023-04-30T05:14:32;13.23;;;10.02;;
46713;SDS011;32445;51.376;10.874;2023-04-30T05:17:32;9.38;;;8.48;;
46713;SDS011;32445;51.376;10.874;2023-04-30T05:20:32;7.10;;;6.68;;
46713;SDS011;32445;51.376;10.874;2023-04-30T05:23:33;9.13;;;8.52;;
46713;SDS011;32445;51.376;10.874;2023-04-30T05:26:33;9.40;;;8.73;;
46713;SDS011;32445;51.376;10.874;2023-04-30T05:29:33;9.10;;;8.50;;
46713;SDS011;32445;51.376;10.874;2023-04-30T05:32:34;10.07;;;9.38;;
46713;SDS011;32445;51.376;10.874;2023-04-30T05:35:34;9.18;;;8.48;;
46713;SDS011;32445;51.376;10.874;2023-04-30T05:38:35;8.07;;;7.32;;
46713;SDS011;32445;51.376;10.874;2023-04-30T05:41:35;8.68;;;8.07;;
46713;SDS011;32445;51.376;10.874;2023-04-30T05:44:35;8.68;;;8.00;;
46713;SDS011;32445;51.376;10.874;2023-04-30T05:47:36;8.73;;;8.13;;
46713;SDS011;32445;51.376;10.874;2023-04-30T05:50:36;10.00;;;8.70;;
46713;SDS011;32445;51.376;10.874;2023-04-30T05:53:36;8.48;;;7.88;;
46713;SDS011;32445;51.376;10.874;2023-04-30T05:56:37;10.23;;;9.40;;
46713;SDS011;32445;51.376;10.874;2023-04-30T05:59:37;11.25;;;10.25;;
46713;SDS011;32445;51.376;10.874;2023-04-30T06:02:37;9.95;;;9.05;;
46713;SDS011;32445;51.376;10.874;2023-04-30T06:05:38;9.50;;;8.70;;
46713;SDS011;32445;51.376;10.874;2023-04-30T06:08:40;10.20;;;9.40;;
46713;SDS011;32445;51.376;10.874;2023-04-30T06:11:43;11.55;;;10.65;;
46713;SDS011;32445;51.376;10.874;2023-04-30T06:14:44;12.27;;;11.27;;
46713;SDS011;32445;51.376;10.874;2023-04-30T06:17:45;10.82;;;9.85;;
46713;SDS011;32445;51.376;10.874;2023-04-30T06:20:45;13.13;;;11.43;;
46713;SDS011;32445;51.376;10.874;2023-04-30T06:23:45;12.70;;;11.50;;
46713;SDS011;32445;51.376;10.874;2023-04-30T06:26:46;13.32;;;12.15;;
46713;SDS011;32445;51.376;10.874;2023-04-30T06:29:46;12.15;;;10.85;;
46713;SDS011;32445;51.376;10.874;2023-04-30T06:32:46;13.73;;;12.52;;
46713;SDS011;32445;51.376;10.874;2023-04-30T06:35:47;16.90;;;12.07;;
46713;SDS011;32445;51.376;10.874;2023-04-30T06:38:49;13.30;;;11.98;;
46713;SDS011;32445;51.376;10.874;2023-04-30T06:41:50;16.63;;;12.20;;
46713;SDS011;32445;51.376;10.874;2023-04-30T06:44:51;11.93;;;10.80;;
46713;SDS011;32445;51.376;10.874;2023-04-30T06:47:51;12.13;;;10.90;;
46713;SDS011;32445;51.376;10.874;2023-04-30T06:50:52;18.63;;;12.57;;
46713;SDS011;32445;51.376;10.874;2023-04-30T06:53:52;13.35;;;11.23;;
46713;SDS011;32445;51.376;10.874;2023-04-30T06:56:52;13.45;;;10.40;;
46713;SDS011;32445;51.376;10.874;2023-04-30T06:59:53;11.00;;;10.00;;
46713;SDS011;32445;51.376;10.874;2023-04-30T07:02:54;11.63;;;10.48;;
46713;SDS011;32445;51.376;10.874;2023-04-30T07:05:56;17.67;;;11.63;;
46713;SDS011;32445;51.376;10.874;2023-04-30T07:08:56;11.57;;;10.50;;
46713;SDS011;32445;51.376;10.874;2023-04-30T07:11:56;20.17;;;12.63;;
46713;SDS011;32445;51.376;10.874;2023-04-30T07:14:57;17.83;;;11.27;;
46713;SDS011;32445;51.376;10.874;2023-04-30T07:17:58;12.80;;;11.57;;
46713;SDS011;32445;51.376;10.874;2023-04-30T07:20:58;12.52;;;11.27;;
46713;SDS011;32445;51.376;10.874;2023-04-30T07:23:58;12.20;;;10.93;;
46713;SDS011;32445;51.376;10.874;2023-04-30T07:26:59;12.40;;;11.05;;
46713;SDS011;32445;51.376;10.874;2023-04-30T07:30:02;12.95;;;10.30;;
46713;SDS011;32445;51.376;10.874;2023-04-30T07:33:02;10.82;;;9.73;;
46713;SDS011;32445;51.376;10.874;2023-04-30T07:36:03;13.02;;;11.13;;
46713;SDS011;32445;51.376;10.874;2023-04-30T07:39:03;12.50;;;9.80;;
46713;SDS011;32445;51.376;10.874;2023-04-30T07:42:05;15.53;;;10.43;;
46713;SDS011;32445;51.376;10.874;2023-04-30T07:45:05;10.65;;;9.60;;
46713;SDS011;32445;51.376;10.874;2023-04-30T07:48:06;11.52;;;9.20;;
46713;SDS011;32445;51.376;10.874;2023-04-30T07:51:07;9.05;;;8.25;;
46713;SDS011;32445;51.376;10.874;2023-04-30T07:54:07;11.77;;;9.02;;
46713;SDS011;32445;51.376;10.874;2023-04-30T07:57:07;9.70;;;8.70;;
46713;SDS011;32445;51.376;10.874;2023-04-30T08:00:08;9.73;;;9.07;;
46713;SDS011;32445;51.376;10.874;2023-04-30T08:03:09;13.05;;;8.95;;
46713;SDS011;32445;51.376;10.874;2023-04-30T08:06:11;9.75;;;8.90;;
46713;SDS011;32445;51.376;10.874;2023-04-30T08:09:11;11.05;;;8.13;;
46713;SDS011;32445;51.376;10.874;2023-04-30T08:12:11;10.80;;;8.65;;
46713;SDS011;32445;51.376;10.874;2023-04-30T08:15:12;9.25;;;8.27;;
46713;SDS011;32445;51.376;10.874;2023-04-30T08:18:12;9.70;;;8.70;;
46713;SDS011;32445;51.376;10.874;2023-04-30T08:21:12;8.13;;;7.32;;
46713;SDS011;32445;51.376;10.874;2023-04-30T08:24:13;10.43;;;7.53;;
46713;SDS011;32445;51.376;10.874;2023-04-30T08:27:14;11.50;;;6.20;;
46713;SDS011;32445;51.376;10.874;2023-04-30T08:30:15;10.00;;;7.20;;
46713;SDS011;32445;51.376;10.874;2023-04-30T08:33:15;8.15;;;6.90;;
46713;SDS011;32445;51.376;10.874;2023-04-30T08:36:16;9.25;;;6.97;;
46713;SDS011;32445;51.376;10.874;2023-04-30T08:39:16;7.80;;;6.55;;
46713;SDS011;32445;51.376;10.874;2023-04-30T08:42:17;7.97;;;6.07;;
46713;SDS011;32445;51.376;10.874;2023-04-30T08:45:21;12.15;;;6.35;;
46713;SDS011;32445;51.376;10.874;2023-04-30T08:48:21;7.15;;;6.03;;
46713;SDS011;32445;51.376;10.874;2023-04-30T08:51:24;8.27;;;6.10;;
46713;SDS011;32445;51.376;10.874;2023-04-30T08:54:25;6.25;;;5.35;;
46713;SDS011;32445;51.376;10.874;2023-04-30T08:57:29;6.20;;;4.72;;
46713;SDS011;32445;51.376;10.874;2023-04-30T09:00:31;8.05;;;5.43;;
46713;SDS011;32445;51.376;10.874;2023-04-30T09:06:32;5.15;;;4.68;;
46713;SDS011;32445;51.376;10.874;2023-04-30T09:09:36;6.85;;;4.47;;
46713;SDS011;32445;51.376;10.874;2023-04-30T09:12:37;7.13;;;4.70;;
46713;SDS011;32445;51.376;10.874;2023-04-30T09:15:39;6.63;;;5.17;;
46713;SDS011;32445;51.376;10.874;2023-04-30T09:18:40;8.10;;;5.13;;
46713;SDS011;32445;51.376;10.874;2023-04-30T09:21:40;4.97;;;4.43;;
46713;SDS011;32445;51.376;10.874;2023-04-30T09:24:47;5.90;;;5.30;;
46713;SDS011;32445;51.376;10.874;2023-04-30T09:27:48;6.57;;;4.88;;
46713;SDS011;32445;51.376;10.874;2023-04-30T09:31:13;5.72;;;3.92;;
46713;SDS011;32445;51.376;10.874;2023-04-30T09:34:20;6.15;;;4.88;;
46713;SDS011;32445;51.376;10.874;2023-04-30T09:37:38;6.45;;;4.47;;
46713;SDS011;32445;51.376;10.874;2023-04-30T09:40:40;7.75;;;4.13;;
46713;SDS011;32445;51.376;10.874;2023-04-30T09:43:43;4.72;;;4.28;;
46713;SDS011;32445;51.376;10.874;2023-04-30T09:46:44;8.57;;;4.55;;
46713;SDS011;32445;51.376;10.874;2023-04-30T09:49:48;5.83;;;4.43;;
46713;SDS011;32445;51.376;10.874;2023-04-30T09:52:52;5.18;;;4.70;;
46713;SDS011;32445;51.376;10.874;2023-04-30T09:56:05;4.93;;;3.97;;
46713;SDS011;32445;51.376;10.874;2023-04-30T09:59:07;7.43;;;5.22;;
46713;SDS011;32445;51.376;10.874;2023-04-30T10:02:14;5.90;;;3.95;;
46713;SDS011;32445;51.376;10.874;2023-04-30T10:05:15;7.35;;;3.72;;
46713;SDS011;32445;51.376;10.874;2023-04-30T10:11:42;5.40;;;4.43;;
46713;SDS011;32445;51.376;10.874;2023-04-30T10:14:47;6.05;;;3.85;;
46713;SDS011;32445;51.376;10.874;2023-04-30T10:17:55;5.30;;;3.55;;
46713;SDS011;32445;51.376;10.874;2023-04-30T10:21:04;8.63;;;4.10;;
46713;SDS011;32445;51.376;10.874;2023-04-30T10:24:14;5.85;;;4.35;;
46713;SDS011;32445;51.376;10.874;2023-04-30T10:27:19;4.25;;;3.20;;
46713;SDS011;32445;51.376;10.874;2023-04-30T10:30:20;8.70;;;3.37;;
46713;SDS011;32445;51.376;10.874;2023-04-30T10:33:28;6.75;;;3.42;;
46713;SDS011;32445;51.376;10.874;2023-04-30T10:39:43;3.88;;;3.08;;
46713;SDS011;32445;51.376;10.874;2023-04-30T10:42:45;4.93;;;3.17;;
46713;SDS011;32445;51.376;10.874;2023-04-30T10:45:47;6.57;;;2.95;;
46713;SDS011;32445;51.376;10.874;2023-04-30T10:48:47;3.47;;;3.13;;
46713;SDS011;32445;51.376;10.874;2023-04-30T10:51:48;4.10;;;2.80;;
46713;SDS011;32445;51.376;10.874;2023-04-30T10:54:57;3.67;;;2.78;;
46713;SDS011;32445;51.376;10.874;2023-04-30T10:57:58;4.90;;;2.40;;
46713;SDS011;32445;51.376;10.874;2023-04-30T11:00:59;5.07;;;2.83;;
46713;SDS011;32445;51.376;10.874;2023-04-30T11:07:09;5.43;;;3.15;;
46713;SDS011;32445;51.376;10.874;2023-04-30T11:10:09;4.27;;;2.30;;
46713;SDS011;32445;51.376;10.874;2023-04-30T11:13:10;3.57;;;2.27;;
46713;SDS011;32445;51.376;10.874;2023-04-30T11:16:10;6.17;;;2.60;;
46713;SDS011;32445;51.376;10.874;2023-04-30T11:19:12;4.07;;;1.87;;
46713;SDS011;32445;51.376;10.874;2023-04-30T11:22:16;2.47;;;1.10;;
46713;SDS011;32445;51.376;10.874;2023-04-30T11:25:18;3.00;;;1.00;;
46713;SDS011;32445;51.376;10.874;2023-04-30T11:28:23;4.47;;;1.40;;
46713;SDS011;32445;51.376;10.874;2023-04-30T11:31:31;5.28;;;1.33;;
46713;SDS011;32445;51.376;10.874;2023-04-30T11:34:33;2.97;;;1.35;;
46713;SDS011;32445;51.376;10.874;2023-04-30T11:37:37;4.88;;;1.48;;
46713;SDS011;32445;51.376;10.874;2023-04-30T11:40:43;4.20;;;1.83;;
46713;SDS011;32445;51.376;10.874;2023-04-30T11:43:44;4.80;;;1.17;;
46713;SDS011;32445;51.376;10.874;2023-04-30T11:46:44;3.00;;;1.20;;
46713;SDS011;32445;51.376;10.874;2023-04-30T11:49:45;3.95;;;1.05;;
46713;SDS011;32445;51.376;10.874;2023-04-30T11:52:49;2.90;;;1.33;;
46713;SDS011;32445;51.376;10.874;2023-04-30T11:55:50;2.20;;;1.02;;
46713;SDS011;32445;51.376;10.874;2023-04-30T11:58:54;3.47;;;1.30;;
46713;SDS011;32445;51.376;10.874;2023-04-30T12:01:55;3.10;;;1.20;;
46713;SDS011;32445;51.376;10.874;2023-04-30T12:04:55;6.30;;;1.20;;
46713;SDS011;32445;51.376;10.874;2023-04-30T12:11:00;3.63;;;1.08;;
46713;SDS011;32445;51.376;10.874;2023-04-30T12:14:01;3.53;;;1.30;;
46713;SDS011;32445;51.376;10.874;2023-04-30T12:17:04;2.63;;;1.10;;
46713;SDS011;32445;51.376;10.874;2023-04-30T12:20:04;3.57;;;1.10;;
46713;SDS011;32445;51.376;10.874;2023-04-30T12:23:06;2.70;;;1.08;;
46713;SDS011;32445;51.376;10.874;2023-04-30T12:26:07;6.03;;;1.40;;
46713;SDS011;32445;51.376;10.874;2023-04-30T12:29:08;2.53;;;0.90;;
46713;SDS011;32445;51.376;10.874;2023-04-30T12:32:10;3.13;;;1.05;;
46713;SDS011;32445;51.376;10.874;2023-04-30T12:35:14;2.23;;;1.03;;
46713;SDS011;32445;51.376;10.874;2023-04-30T12:38:15;3.40;;;0.80;;
46713;SDS011;32445;51.376;10.874;2023-04-30T12:41:17;4.93;;;1.20;;
46713;SDS011;32445;51.376;10.874;2023-04-30T12:47:24;3.90;;;1.20;;
46713;SDS011;32445;51.376;10.874;2023-04-30T12:50:24;3.00;;;1.20;;
46713;SDS011;32445;51.376;10.874;2023-04-30T12:53:25;5.65;;;1.40;;
46713;SDS011;32445;51.376;10.874;2023-04-30T12:56:26;2.95;;;1.48;;
46713;SDS011;32445;51.376;10.874;2023-04-30T12:59:27;3.93;;;1.17;;
46713;SDS011;32445;51.376;10.874;2023-04-30T13:05:30;5.75;;;1.60;;
46713;SDS011;32445;51.376;10.874;2023-04-30T13:08:31;3.57;;;1.47;;
46713;SDS011;32445;51.376;10.874;2023-04-30T13:11:32;2.33;;;1.10;;
46713;SDS011;32445;51.376;10.874;2023-04-30T13:14:32;3.60;;;1.23;;
46713;SDS011;32445;51.376;10.874;2023-04-30T13:17:34;4.38;;;1.45;;
46713;SDS011;32445;51.376;10.874;2023-04-30T13:20:35;3.22;;;1.10;;
46713;SDS011;32445;51.376;10.874;2023-04-30T13:23:36;3.83;;;1.10;;
46713;SDS011;32445;51.376;10.874;2023-04-30T13:26:36;2.60;;;1.27;;
46713;SDS011;32445;51.376;10.874;2023-04-30T13:29:37;2.70;;;1.00;;
46713;SDS011;32445;51.376;10.874;2023-04-30T13:32:37;2.43;;;1.27;;
46713;SDS011;32445;51.376;10.874;2023-04-30T13:35:37;2.17;;;0.80;;
46713;SDS011;32445;51.376;10.874;2023-04-30T13:38:38;2.13;;;1.20;;
46713;SDS011;32445;51.376;10.874;2023-04-30T13:41:39;4.68;;;1.33;;
46713;SDS011;32445;51.376;10.874;2023-04-30T13:44:39;4.23;;;1.30;;
46713;SDS011;32445;51.376;10.874;2023-04-30T13:47:39;5.37;;;1.60;;
46713;SDS011;32445;51.376;10.874;2023-04-30T13:50:40;3.40;;;1.27;;
46713;SDS011;32445;51.376;10.874;2023-04-30T13:53:40;4.27;;;1.27;;
46713;SDS011;32445;51.376;10.874;2023-04-30T13:56:40;3.63;;;1.20;;
46713;SDS011;32445;51.376;10.874;2023-04-30T13:59:41;2.88;;;1.42;;
46713;SDS011;32445;51.376;10.874;2023-04-30T14:02:41;3.50;;;0.87;;
46713;SDS011;32445;51.376;10.874;2023-04-30T14:05:42;2.35;;;1.00;;
46713;SDS011;32445;51.376;10.874;2023-04-30T14:08:42;2.77;;;0.97;;
46713;SDS011;32445;51.376;10.874;2023-04-30T14:11:42;3.60;;;1.20;;
46713;SDS011;32445;51.376;10.874;2023-04-30T14:14:43;4.20;;;1.30;;
46713;SDS011;32445;51.376;10.874;2023-04-30T14:17:43;4.97;;;1.20;;
46713;SDS011;32445;51.376;10.874;2023-04-30T14:20:43;3.70;;;1.20;;
46713;SDS011;32445;51.376;10.874;2023-04-30T14:23:44;2.53;;;1.10;;
46713;SDS011;32445;51.376;10.874;2023-04-30T14:26:47;3.13;;;1.00;;
46713;SDS011;32445;51.376;10.874;2023-04-30T14:29:47;1.63;;;0.83;;
46713;SDS011;32445;51.376;10.874;2023-04-30T14:32:48;1.77;;;0.90;;
46713;SDS011;32445;51.376;10.874;2023-04-30T14:35:48;4.27;;;1.30;;
46713;SDS011;32445;51.376;10.874;2023-04-30T14:38:48;3.70;;;1.50;;
46713;SDS011;32445;51.376;10.874;2023-04-30T14:41:49;4.47;;;1.30;;
46713;SDS011;32445;51.376;10.874;2023-04-30T14:44:49;1.38;;;0.73;;
46713;SDS011;32445;51.376;10.874;2023-04-30T14:47:50;2.72;;;1.00;;
46713;SDS011;32445;51.376;10.874;2023-04-30T14:50:51;7.20;;;1.83;;
46713;SDS011;32445;51.376;10.874;2023-04-30T14:53:51;3.00;;;1.07;;
46713;SDS011;32445;51.376;10.874;2023-04-30T14:56:51;2.72;;;1.10;;
46713;SDS011;32445;51.376;10.874;2023-04-30T14:59:52;2.13;;;1.17;;
46713;SDS011;32445;51.376;10.874;2023-04-30T15:02:53;2.88;;;1.10;;
46713;SDS011;32445;51.376;10.874;2023-04-30T15:05:54;3.53;;;1.07;;
46713;SDS011;32445;51.376;10.874;2023-04-30T15:08:54;4.70;;;1.23;;
46713;SDS011;32445;51.376;10.874;2023-04-30T15:11:55;3.27;;;0.97;;
46713;SDS011;32445;51.376;10.874;2023-04-30T15:14:56;3.72;;;1.38;;
46713;SDS011;32445;51.376;10.874;2023-04-30T15:17:56;2.90;;;1.00;;
46713;SDS011;32445;51.376;10.874;2023-04-30T15:23:58;7.57;;;1.87;;
46713;SDS011;32445;51.376;10.874;2023-04-30T15:26:58;1.53;;;0.87;;
46713;SDS011;32445;51.376;10.874;2023-04-30T15:29:59;2.10;;;0.83;;
46713;SDS011;32445;51.376;10.874;2023-04-30T15:32:59;3.57;;;1.23;;
46713;SDS011;32445;51.376;10.874;2023-04-30T15:35:59;4.33;;;1.27;;
46713;SDS011;32445;51.376;10.874;2023-04-30T15:39:00;2.50;;;1.02;;
46713;SDS011;32445;51.376;10.874;2023-04-30T15:42:00;2.27;;;0.87;;
46713;SDS011;32445;51.376;10.874;2023-04-30T15:45:00;3.35;;;1.52;;
46713;SDS011;32445;51.376;10.874;2023-04-30T15:48:01;7.77;;;1.10;;
46713;SDS011;32445;51.376;10.874;2023-04-30T15:51:01;3.03;;;1.20;;
46713;SDS011;32445;51.376;10.874;2023-04-30T15:54:02;2.05;;;1.23;;
46713;SDS011;32445;51.376;10.874;2023-04-30T15:57:03;2.17;;;0.85;;
46713;SDS011;32445;51.376;10.874;2023-04-30T16:00:03;3.25;;;1.13;;
46713;SDS011;32445;51.376;10.874;2023-04-30T16:03:04;2.15;;;1.33;;
46713;SDS011;32445;51.376;10.874;2023-04-30T16:06:05;3.65;;;1.05;;
46713;SDS011;32445;51.376;10.874;2023-04-30T16:09:05;3.13;;;1.60;;
46713;SDS011;32445;51.376;10.874;2023-04-30T16:12:07;2.53;;;1.13;;
46713;SDS011;32445;51.376;10.874;2023-04-30T16:15:08;3.53;;;1.03;;
46713;SDS011;32445;51.376;10.874;2023-04-30T16:18:10;2.70;;;1.10;;
46713;SDS011;32445;51.376;10.874;2023-04-30T16:21:10;3.23;;;1.40;;
46713;SDS011;32445;51.376;10.874;2023-04-30T16:24:11;2.40;;;1.30;;
46713;SDS011;32445;51.376;10.874;2023-04-30T16:27:11;4.38;;;1.30;;
46713;SDS011;32445;51.376;10.874;2023-04-30T16:30:12;2.77;;;1.40;;
46713;SDS011;32445;51.376;10.874;2023-04-30T16:33:12;2.72;;;1.40;;
46713;SDS011;32445;51.376;10.874;2023-04-30T16:36:12;2.00;;;1.60;;
46713;SDS011;32445;51.376;10.874;2023-04-30T16:39:13;2.13;;;1.15;;
46713;SDS011;32445;51.376;10.874;2023-04-30T16:42:13;3.10;;;1.25;;
46713;SDS011;32445;51.376;10.874;2023-04-30T16:45:14;3.50;;;1.10;;
46713;SDS011;32445;51.376;10.874;2023-04-30T16:48:15;4.32;;;2.03;;
46713;SDS011;32445;51.376;10.874;2023-04-30T16:51:16;3.15;;;1.50;;
46713;SDS011;32445;51.376;10.874;2023-04-30T16:54:16;5.67;;;1.97;;
46713;SDS011;32445;51.376;10.874;2023-04-30T16:57:17;4.60;;;1.93;;
46713;SDS011;32445;51.376;10.874;2023-04-30T17:00:17;2.87;;;1.50;;
46713;SDS011;32445;51.376;10.874;2023-04-30T17:03:18;2.67;;;1.40;;
46713;SDS011;32445;51.376;10.874;2023-04-30T17:06:18;5.20;;;1.90;;
46713;SDS011;32445;51.376;10.874;2023-04-30T17:09:19;1.90;;;1.13;;
46713;SDS011;32445;51.376;10.874;2023-04-30T17:12:19;2.97;;;1.45;;
46713;SDS011;32445;51.376;10.874;2023-04-30T17:15:20;3.35;;;1.50;;
46713;SDS011;32445;51.376;10.874;2023-04-30T17:18:20;3.07;;;1.43;;
46713;SDS011;32445;51.376;10.874;2023-04-30T17:21:20;3.43;;;1.30;;
46713;SDS011;32445;51.376;10.874;2023-04-30T17:24:21;3.43;;;1.47;;
46713;SDS011;32445;51.376;10.874;2023-04-30T17:27:23;4.88;;;1.45;;
46713;SDS011;32445;51.376;10.874;2023-04-30T17:30:23;2.57;;;1.33;;
46713;SDS011;32445;51.376;10.874;2023-04-30T17:33:25;4.07;;;2.45;;
46713;SDS011;32445;51.376;10.874;2023-04-30T17:36:25;5.10;;;2.47;;
46713;SDS011;32445;51.376;10.874;2023-04-30T17:39:28;4.40;;;2.10;;
46713;SDS011;32445;51.376;10.874;2023-04-30T17:42:31;2.35;;;1.38;;
46713;SDS011;32445;51.376;10.874;2023-04-30T17:45:33;4.53;;;1.70;;
46713;SDS011;32445;51.376;10.874;2023-04-30T17:48:33;3.57;;;1.70;;
46713;SDS011;32445;51.376;10.874;2023-04-30T17:51:33;3.17;;;1.57;;
46713;SDS011;32445;51.376;10.874;2023-04-30T17:54:34;5.23;;;1.50;;
46713;SDS011;32445;51.376;10.874;2023-04-30T17:57:35;3.90;;;1.77;;
46713;SDS011;32445;51.376;10.874;2023-04-30T18:00:39;2.40;;;1.53;;
46713;SDS011;32445;51.376;10.874;2023-04-30T18:03:42;3.13;;;1.75;;
46713;SDS011;32445;51.376;10.874;2023-04-30T18:06:42;5.10;;;1.40;;
46713;SDS011;32445;51.376;10.874;2023-04-30T18:09:42;3.37;;;1.37;;
46713;SDS011;32445;51.376;10.874;2023-04-30T18:12:43;5.47;;;1.50;;
46713;SDS011;32445;51.376;10.874;2023-04-30T18:15:43;3.00;;;1.70;;
46713;SDS011;32445;51.376;10.874;2023-04-30T18:18:44;4.20;;;1.60;;
46713;SDS011;32445;51.376;10.874;2023-04-30T18:21:44;2.93;;;1.30;;
46713;SDS011;32445;51.376;10.874;2023-04-30T18:24:44;5.37;;;1.67;;
46713;SDS011;32445;51.376;10.874;2023-04-30T18:27:45;5.97;;;2.17;;
46713;SDS011;32445;51.376;10.874;2023-04-30T18:30:45;3.43;;;1.47;;
46713;SDS011;32445;51.376;10.874;2023-04-30T18:33:45;1.83;;;1.40;;